sensor_id;sensor_type;location;lat;lon;timestamp;pressure;altitude;pressure_sealevel;temperature;humidity
50650;BME280;36621;60.058;30.346;2023-02-13T00:06:49;100914.31;;;2.67;74.35
50650;BME280;36621;60.058;30.346;2023-02-13T00:14:21;100913.50;;;2.67;73.92
50650;BME280;36621;60.058;30.346;2023-02-13T00:21:54;100908.53;;;2.64;74.27
50650;BME280;36621;60.058;30.346;2023-02-13T00:29:29;100920.56;;;2.61;73.84
50650;BME280;36621;60.058;30.346;2023-02-13T00:37:01;100918.50;;;2.63;74.33
50650;BME280;36621;60.058;30.346;2023-02-13T00:44:34;100911.88;;;2.59;73.93
50650;BME280;36621;60.058;30.346;2023-02-13T00:52:08;100882.09;;;2.47;74.03
50650;BME280;36621;60.058;30.346;2023-02-13T00:59:41;100893.63;;;2.61;73.46
50650;BME280;36621;60.058;30.346;2023-02-13T01:07:14;100888.22;;;2.61;73.34
50650;BME280;36621;60.058;30.346;2023-02-13T01:14:48;100885.38;;;2.49;73.50
50650;BME280;36621;60.058;30.346;2023-02-13T01:22:24;100881.31;;;2.40;73.51
50650;BME280;36621;60.058;30.346;2023-02-13T01:29:56;100868.28;;;2.30;73.26
50650;BME280;36621;60.058;30.346;2023-02-13T01:37:29;100845.34;;;2.14;73.79
50650;BME280;36621;60.058;30.346;2023-02-13T01:45:02;100863.91;;;2.29;73.21
50650;BME280;36621;60.058;30.346;2023-02-13T01:52:38;100864.75;;;2.30;73.84
50650;BME280;36621;60.058;30.346;2023-02-13T02:00:13;100865.16;;;2.33;73.60
50650;BME280;36621;60.058;30.346;2023-02-13T02:07:53;100869.28;;;2.36;73.48
50650;BME280;36621;60.058;30.346;2023-02-13T02:15:28;100855.19;;;2.34;73.28
50650;BME280;36621;60.058;30.346;2023-02-13T02:23:39;100843.47;;;2.60;73.94
50650;BME280;36621;60.058;30.346;2023-02-13T02:39:29;100852.13;;;2.30;74.35
50650;BME280;36621;60.058;30.346;2023-02-13T02:47:10;100854.59;;;2.32;74.44
50650;BME280;36621;60.058;30.346;2023-02-13T02:55:06;100855.97;;;2.41;74.61
50650;BME280;36621;60.058;30.346;2023-02-13T03:02:52;100845.19;;;2.41;74.07
50650;BME280;36621;60.058;30.346;2023-02-13T03:10:42;100820.66;;;2.17;74.13
50650;BME280;36621;60.058;30.346;2023-02-13T03:18:38;100824.13;;;2.31;74.03
50650;BME280;36621;60.058;30.346;2023-02-13T03:26:40;100812.50;;;2.37;74.67
50650;BME280;36621;60.058;30.346;2023-02-13T03:34:22;100807.91;;;2.38;73.91
50650;BME280;36621;60.058;30.346;2023-02-13T03:42:00;100812.44;;;2.44;74.24
50650;BME280;36621;60.058;30.346;2023-02-13T03:49:36;100807.13;;;2.31;74.19
50650;BME280;36621;60.058;30.346;2023-02-13T03:57:31;100817.47;;;2.34;74.11
50650;BME280;36621;60.058;30.346;2023-02-13T04:05:25;100798.59;;;2.34;74.25
50650;BME280;36621;60.058;30.346;2023-02-13T04:13:03;100800.63;;;2.45;74.05
50650;BME280;36621;60.058;30.346;2023-02-13T04:20:40;100780.94;;;2.45;73.92
50650;BME280;36621;60.058;30.346;2023-02-13T04:28:13;100775.47;;;2.51;74.06
50650;BME280;36621;60.058;30.346;2023-02-13T04:35:45;100773.22;;;2.48;73.76
50650;BME280;36621;60.058;30.346;2023-02-13T04:43:17;100787.03;;;2.58;73.50
50650;BME280;36621;60.058;30.346;2023-02-13T04:50:49;100784.34;;;2.58;73.81
50650;BME280;36621;60.058;30.346;2023-02-13T04:58:22;100796.13;;;2.64;73.72
50650;BME280;36621;60.058;30.346;2023-02-13T05:05:56;100770.28;;;2.56;73.59
50650;BME280;36621;60.058;30.346;2023-02-13T05:13:41;100767.03;;;2.73;73.83
50650;BME280;36621;60.058;30.346;2023-02-13T05:21:15;100783.19;;;2.73;73.33
50650;BME280;36621;60.058;30.346;2023-02-13T19:03:20;100673.31;;;1.93;69.13
50650;BME280;36621;60.058;30.346;2023-02-13T19:10:57;100678.84;;;1.98;69.77
50650;BME280;36621;60.058;30.346;2023-02-13T19:18:30;100678.50;;;1.87;68.70
50650;BME280;36621;60.058;30.346;2023-02-13T19:26:03;100712.84;;;1.92;68.72
50650;BME280;36621;60.058;30.346;2023-02-13T19:33:39;100691.81;;;1.76;68.71
50650;BME280;36621;60.058;30.346;2023-02-13T19:41:13;100731.31;;;1.88;68.51
50650;BME280;36621;60.058;30.346;2023-02-13T19:48:50;100733.66;;;1.78;68.54
50650;BME280;36621;60.058;30.346;2023-02-13T19:56:23;100738.41;;;1.76;68.73
50650;BME280;36621;60.058;30.346;2023-02-13T20:03:56;100728.72;;;1.62;68.81
50650;BME280;36621;60.058;30.346;2023-02-13T20:11:30;100742.38;;;1.67;68.33
50650;BME280;36621;60.058;30.346;2023-02-13T20:19:27;100698.16;;;1.49;69.73
50650;BME280;36621;60.058;30.346;2023-02-13T20:27:00;100737.88;;;1.61;68.25
50650;BME280;36621;60.058;30.346;2023-02-13T20:34:33;100766.19;;;1.70;68.05
50650;BME280;36621;60.058;30.346;2023-02-13T20:42:11;100759.84;;;1.51;68.11
50650;BME280;36621;60.058;30.346;2023-02-13T20:49:44;100769.97;;;1.55;67.89
50650;BME280;36621;60.058;30.346;2023-02-13T20:57:16;100803.50;;;1.60;67.80
50650;BME280;36621;60.058;30.346;2023-02-13T21:04:54;100804.34;;;1.53;68.54
50650;BME280;36621;60.058;30.346;2023-02-13T21:12:26;100799.59;;;1.42;68.06
50650;BME280;36621;60.058;30.346;2023-02-13T21:19:59;100846.34;;;1.54;67.91
50650;BME280;36621;60.058;30.346;2023-02-13T21:27:31;100842.66;;;1.49;68.00
50650;BME280;36621;60.058;30.346;2023-02-13T21:35:04;100839.16;;;1.35;67.74
50650;BME280;36621;60.058;30.346;2023-02-13T21:42:36;100862.09;;;1.44;67.79
50650;BME280;36621;60.058;30.346;2023-02-13T21:50:09;100861.66;;;1.47;67.92
50650;BME280;36621;60.058;30.346;2023-02-13T21:57:41;100867.84;;;1.74;67.87
50650;BME280;36621;60.058;30.346;2023-02-13T22:05:13;100876.91;;;1.94;67.83
50650;BME280;36621;60.058;30.346;2023-02-13T22:12:49;100863.28;;;1.75;68.53
50650;BME280;36621;60.058;30.346;2023-02-13T22:20:22;100890.00;;;1.70;67.69
50650;BME280;36621;60.058;30.346;2023-02-13T22:27:55;100899.78;;;1.58;67.78
50650;BME280;36621;60.058;30.346;2023-02-13T22:35:29;100926.03;;;1.76;68.83
50650;BME280;36621;60.058;30.346;2023-02-13T22:43:02;100926.44;;;1.79;68.05
50650;BME280;36621;60.058;30.346;2023-02-13T22:50:35;100924.59;;;1.80;67.50
50650;BME280;36621;60.058;30.346;2023-02-13T22:58:06;100936.16;;;1.80;67.05
50650;BME280;36621;60.058;30.346;2023-02-13T23:05:39;100970.94;;;2.08;67.33
50650;BME280;36621;60.058;30.346;2023-02-13T23:13:11;100979.41;;;2.12;67.34
50650;BME280;36621;60.058;30.346;2023-02-13T23:20:44;100977.13;;;2.09;67.03
50650;BME280;36621;60.058;30.346;2023-02-13T23:28:16;100992.91;;;1.92;67.37
50650;BME280;36621;60.058;30.346;2023-02-13T23:35:48;100997.88;;;1.82;66.94
50650;BME280;36621;60.058;30.346;2023-02-13T23:43:20;101001.63;;;1.74;67.14
50650;BME280;36621;60.058;30.346;2023-02-13T23:50:53;101036.41;;;1.76;67.28
50650;BME280;36621;60.058;30.346;2023-02-13T23:58:25;101039.28;;;1.67;67.33
